createdAt,value
2023-02-09T00:01:12.359Z,46.12
2023-02-09T00:02:44.063Z,46.86
2023-02-09T00:04:15.671Z,46.68
2023-02-09T00:05:47.273Z,46.69
2023-02-09T00:07:18.916Z,45.35
2023-02-09T00:08:50.602Z,45.78
2023-02-09T00:10:22.124Z,45.47
2023-02-09T00:12:12.287Z,46.74
2023-02-09T00:13:44.031Z,46.91
2023-02-09T00:15:15.544Z,45.92
2023-02-09T00:16:47.269Z,46.95
2023-02-09T00:18:19.167Z,45.85
2023-02-09T00:19:50.652Z,46.34
2023-02-09T00:21:22.095Z,46.32
2023-02-09T00:22:53.593Z,45.97
2023-02-09T00:24:25.316Z,45.42
2023-02-09T00:25:59.931Z,45.70
2023-02-09T00:27:32.362Z,45.21
2023-02-09T00:29:03.885Z,45.62
2023-02-09T00:30:35.432Z,45.34
2023-02-09T00:32:06.974Z,45.67
2023-02-09T00:33:38.582Z,46.59
2023-02-09T00:35:10.131Z,46.42
2023-02-09T00:36:41.675Z,45.97
2023-02-09T00:38:13.555Z,46.88
2023-02-09T00:39:45.087Z,47.03
2023-02-09T00:41:16.623Z,47.04
2023-02-09T00:42:48.111Z,46.80
2023-02-09T00:44:19.657Z,46.79
2023-02-09T00:45:51.160Z,47.04
2023-02-09T00:47:22.775Z,46.11
2023-02-09T00:48:54.255Z,45.92
2023-02-09T00:50:26.096Z,45.90
2023-02-09T00:51:57.589Z,47.26
2023-02-09T00:53:29.131Z,47.26
2023-02-09T00:55:01.170Z,46.91
2023-02-09T00:56:33.893Z,46.88
2023-02-09T00:58:05.425Z,46.67
2023-02-09T00:59:37.070Z,47.16
2023-02-09T01:01:13.687Z,45.67
2023-02-09T01:02:45.219Z,45.87
2023-02-09T01:04:16.800Z,46.30
2023-02-09T01:05:48.393Z,46.54
2023-02-09T01:07:20.291Z,46.51
2023-02-09T01:08:51.776Z,46.75
2023-02-09T01:10:23.230Z,46.56
2023-02-09T01:11:54.830Z,46.93
2023-02-09T01:13:26.370Z,45.82
2023-02-09T01:14:57.924Z,46.96
2023-02-09T01:16:31.606Z,46.99
2023-02-09T01:18:03.316Z,46.88
2023-02-09T01:19:35.287Z,46.93
2023-02-09T01:21:10.547Z,46.91
2023-02-09T01:22:42.107Z,46.60
2023-02-09T01:24:13.892Z,46.09
2023-02-09T01:25:45.470Z,46.72
2023-02-09T01:27:17.199Z,46.20
2023-02-09T01:28:49.507Z,46.74
2023-02-09T01:30:21.166Z,46.18
2023-02-09T01:31:52.858Z,46.96
2023-02-09T01:33:24.542Z,46.00
2023-02-09T01:34:56.066Z,46.10
2023-02-09T01:36:27.990Z,46.73
2023-02-09T01:37:59.538Z,47.20
2023-02-09T01:39:31.061Z,46.02
2023-02-09T01:41:02.534Z,46.31
2023-02-09T01:42:34.104Z,47.52
2023-02-09T01:44:28.709Z,46.40
2023-02-09T01:46:00.350Z,46.82
2023-02-09T01:47:31.944Z,47.05
2023-02-09T01:49:03.717Z,47.04
2023-02-09T01:50:37.001Z,46.14
2023-02-09T01:52:13.219Z,46.35
2023-02-09T01:53:44.886Z,46.38
2023-02-09T01:55:17.744Z,47.20
2023-02-09T01:56:50.988Z,46.61
2023-02-09T01:58:22.511Z,47.63
2023-02-09T01:59:55.966Z,46.37
2023-02-09T02:01:27.462Z,47.37
2023-02-09T02:03:00.463Z,46.74
2023-02-09T02:04:32.587Z,46.55
2023-02-09T02:06:09.170Z,46.58
2023-02-09T02:07:45.547Z,47.70
2023-02-09T02:09:17.091Z,46.96
2023-02-09T02:10:48.639Z,47.01
2023-02-09T02:12:20.123Z,47.76
2023-02-09T02:13:51.633Z,47.88
2023-02-09T02:15:27.695Z,47.47
2023-02-09T02:17:11.408Z,47.59
2023-02-09T02:19:01.714Z,47.48
2023-02-09T02:20:51.956Z,47.83
2023-02-09T02:22:23.473Z,47.21
2023-02-09T02:24:13.178Z,47.11
2023-02-09T02:26:02.530Z,47.21
2023-02-09T02:27:37.089Z,46.98
2023-02-09T02:29:14.394Z,46.57
2023-02-09T02:30:49.386Z,47.21
2023-02-09T02:32:21.168Z,47.30
2023-02-09T02:33:52.931Z,47.68
2023-02-09T02:35:24.478Z,47.05
2023-02-09T02:37:15.038Z,47.50
2023-02-09T02:38:50.441Z,47.00
2023-02-09T02:40:40.625Z,46.94
2023-02-09T02:42:40.125Z,47.32
2023-02-09T02:44:13.079Z,46.97
2023-02-09T02:45:47.310Z,47.31
2023-02-09T02:47:19.550Z,47.03
2023-02-09T02:48:55.464Z,47.94
2023-02-09T02:50:27.430Z,47.88
2023-02-09T02:51:59.728Z,47.60
2023-02-09T02:53:32.298Z,47.23
2023-02-09T02:55:05.513Z,48.03
2023-02-09T02:56:37.976Z,47.70
2023-02-09T02:58:09.541Z,47.50
2023-02-09T02:59:42.706Z,47.38
2023-02-09T03:01:14.973Z,47.64
2023-02-09T03:02:47.782Z,47.16
2023-02-09T03:04:19.333Z,47.29
2023-02-09T03:05:50.871Z,47.16
2023-02-09T03:07:22.431Z,47.35
2023-02-09T03:08:55.253Z,47.38
2023-02-09T03:10:30.790Z,47.33
2023-02-09T03:12:07.198Z,48.05
2023-02-09T03:13:41.082Z,47.66
2023-02-09T03:15:21.423Z,47.45
2023-02-09T03:16:53.023Z,47.86
2023-02-09T03:18:30.832Z,48.23
2023-02-09T03:20:11.029Z,48.28
2023-02-09T03:21:45.239Z,47.86
2023-02-09T03:23:20.272Z,47.30
2023-02-09T03:24:53.053Z,47.87
2023-02-09T03:26:28.400Z,47.79
2023-02-09T03:28:02.586Z,47.42
2023-02-09T03:29:34.122Z,47.72
2023-02-09T03:31:05.583Z,47.53
2023-02-09T03:32:37.650Z,47.66
2023-02-09T03:34:09.647Z,47.67
2023-02-09T03:35:41.138Z,47.36
2023-02-09T03:37:12.681Z,47.30
2023-02-09T03:38:44.229Z,47.02
2023-02-09T03:40:15.920Z,47.06
2023-02-09T03:41:47.946Z,47.56
2023-02-09T03:43:19.784Z,47.10
2023-02-09T03:44:51.382Z,47.62
2023-02-09T03:46:23.032Z,47.76
2023-02-09T03:47:54.561Z,47.55
2023-02-09T03:49:26.779Z,47.97
2023-02-09T03:50:58.218Z,47.53
2023-02-09T03:52:31.719Z,48.39
2023-02-09T03:54:03.932Z,47.98
2023-02-09T03:55:37.181Z,47.89
2023-02-09T03:57:10.485Z,48.27
2023-02-09T03:58:42.061Z,48.06
2023-02-09T04:00:13.865Z,48.00
2023-02-09T04:01:45.482Z,48.32
2023-02-09T04:03:16.983Z,47.76
2023-02-09T04:04:48.496Z,47.94
2023-02-09T04:06:20.086Z,47.66
2023-02-09T04:07:51.661Z,48.35
2023-02-09T04:09:23.483Z,48.03
2023-02-09T04:10:55.043Z,48.20
2023-02-09T04:12:26.510Z,47.57
2023-02-09T04:13:58.113Z,47.65
2023-02-09T04:15:29.714Z,48.40
2023-02-09T04:17:01.190Z,47.86
2023-02-09T04:18:32.662Z,48.54
2023-02-09T04:20:04.310Z,47.75
2023-02-09T04:21:36.204Z,47.76
2023-02-09T04:23:07.692Z,47.85
2023-02-09T04:24:39.188Z,48.65
2023-02-09T04:26:10.847Z,48.65
2023-02-09T04:27:42.450Z,47.75
2023-02-09T04:29:13.926Z,48.37
2023-02-09T04:30:45.581Z,48.41
2023-02-09T04:32:17.424Z,48.09
2023-02-09T04:33:48.947Z,48.26
2023-02-09T04:35:20.480Z,48.24
2023-02-09T04:36:52.408Z,48.19
2023-02-09T04:38:23.896Z,47.84
2023-02-09T04:39:55.363Z,47.78
2023-02-09T04:41:26.879Z,48.56
2023-02-09T04:42:58.506Z,48.91
2023-02-09T04:44:30.099Z,48.42
2023-02-09T04:46:01.863Z,48.83
2023-02-09T04:47:33.384Z,48.89
2023-02-09T04:49:04.966Z,48.10
2023-02-09T04:50:36.405Z,48.08
2023-02-09T04:52:08.013Z,48.03
2023-02-09T04:53:39.530Z,48.31
2023-02-09T04:55:11.017Z,48.09
2023-02-09T04:56:42.502Z,47.89
2023-02-09T04:58:36.504Z,48.76
2023-02-09T05:00:08.472Z,48.73
2023-02-09T05:01:39.957Z,48.06
2023-02-09T05:03:11.509Z,47.93
2023-02-09T05:04:43.027Z,48.67
2023-02-09T05:06:14.499Z,48.72
2023-02-09T05:07:45.967Z,48.74
2023-02-09T05:09:17.449Z,48.31
2023-02-09T05:10:48.958Z,48.20
2023-02-09T05:12:20.422Z,48.97
2023-02-09T05:13:51.868Z,48.74
2023-02-09T05:15:23.315Z,48.38
2023-02-09T05:16:54.963Z,48.17
2023-02-09T05:18:26.533Z,48.99
2023-02-09T05:19:58.045Z,48.38
2023-02-09T05:21:29.582Z,48.35
2023-02-09T05:23:01.066Z,48.60
2023-02-09T05:24:32.646Z,48.25
2023-02-09T05:26:04.279Z,48.32
2023-02-09T05:27:35.874Z,48.23
2023-02-09T05:29:07.367Z,48.44
2023-02-09T05:30:38.885Z,49.01
2023-02-09T05:32:10.408Z,48.37
2023-02-09T05:33:42.016Z,48.83
2023-02-09T05:35:13.589Z,47.84
2023-02-09T05:36:45.171Z,47.81
2023-02-09T05:38:16.654Z,48.06
2023-02-09T05:39:48.221Z,47.99
2023-02-09T05:41:38.135Z,48.72
2023-02-09T05:43:09.841Z,48.61
2023-02-09T05:44:45.100Z,48.35
2023-02-09T05:46:16.644Z,48.83
2023-02-09T05:47:48.194Z,48.73
2023-02-09T05:49:19.799Z,47.43
2023-02-09T05:50:51.376Z,48.88
2023-02-09T05:52:23.132Z,48.45
2023-02-09T05:53:54.743Z,48.05
2023-02-09T05:55:26.436Z,48.24
2023-02-09T05:56:57.918Z,48.49
2023-02-09T05:58:29.492Z,49.25
2023-02-09T06:00:01.016Z,48.51
2023-02-09T06:01:33.100Z,48.86
2023-02-09T06:03:07.252Z,48.60
2023-02-09T06:04:38.949Z,49.06
2023-02-09T06:06:10.527Z,49.41
2023-02-09T06:09:53.862Z,48.94
2023-02-09T06:13:11.073Z,48.72
2023-02-09T06:14:42.718Z,49.09
2023-02-09T06:16:14.327Z,48.58
2023-02-09T06:17:46.524Z,49.03
2023-02-09T06:19:18.971Z,48.38
2023-02-09T06:20:50.620Z,48.46
2023-02-09T06:22:22.125Z,49.32
2023-02-09T06:23:53.667Z,47.96
2023-02-09T06:25:25.235Z,48.33
2023-02-09T06:26:56.989Z,48.22
2023-02-09T06:28:28.553Z,48.49
2023-02-09T06:30:00.249Z,48.29
2023-02-09T06:31:31.983Z,48.91
2023-02-09T06:33:03.573Z,47.95
2023-02-09T06:34:35.102Z,49.25
2023-02-09T06:36:06.937Z,48.98
2023-02-09T06:37:38.465Z,48.71
2023-02-09T06:39:10.219Z,48.74
2023-02-09T06:40:41.832Z,48.86
2023-02-09T06:42:13.475Z,49.39
2023-02-09T06:43:45.179Z,49.21
2023-02-09T06:45:17.102Z,49.28
2023-02-09T06:46:48.679Z,48.77
2023-02-09T06:48:20.309Z,49.07
2023-02-09T06:49:52.014Z,49.27
2023-02-09T06:51:23.589Z,49.08
2023-02-09T06:52:55.600Z,49.10
2023-02-09T06:54:29.416Z,49.71
2023-02-09T06:56:01.736Z,49.49
2023-02-09T06:57:35.258Z,49.02
2023-02-09T06:59:18.633Z,49.23
2023-02-09T07:00:53.319Z,49.35
2023-02-09T07:02:28.242Z,49.25
2023-02-09T07:06:23.380Z,49.35
2023-02-09T07:07:58.192Z,49.28
2023-02-09T07:09:29.741Z,49.42
2023-02-09T07:14:38.457Z,49.92
2023-02-09T07:16:10.300Z,49.81
2023-02-09T07:17:42.470Z,49.18
2023-02-09T07:19:18.720Z,49.26
2023-02-09T07:21:00.181Z,49.26
2023-02-09T07:22:31.761Z,49.06
2023-02-09T07:24:03.530Z,49.06
2023-02-09T07:25:35.891Z,49.25
2023-02-09T07:27:16.318Z,49.19
2023-02-09T07:28:48.049Z,49.76
2023-02-09T07:30:40.184Z,49.38
2023-02-09T07:32:22.867Z,49.08
2023-02-09T07:33:54.411Z,49.15
2023-02-09T07:35:25.975Z,48.98
2023-02-09T07:36:57.578Z,48.96
2023-02-09T07:38:29.274Z,48.63
2023-02-09T07:40:00.886Z,48.83
2023-02-09T07:41:32.468Z,49.39
2023-02-09T07:43:04.580Z,49.25
2023-02-09T07:44:36.134Z,48.80
2023-02-09T07:46:08.213Z,48.73
2023-02-09T07:47:39.898Z,49.12
2023-02-09T07:49:11.486Z,49.32
2023-02-09T07:50:48.559Z,49.02
2023-02-09T07:52:20.008Z,49.28
2023-02-09T07:53:57.949Z,49.00
2023-02-09T07:55:29.708Z,48.90
2023-02-09T07:57:01.180Z,48.77
2023-02-09T07:58:32.804Z,48.87
2023-02-09T08:00:04.501Z,48.82
2023-02-09T08:01:35.979Z,48.47
2023-02-09T08:03:07.757Z,48.22
2023-02-09T08:04:39.363Z,48.51
2023-02-09T08:06:19.558Z,48.51
2023-02-09T08:07:51.740Z,48.85
2023-02-09T08:09:23.304Z,48.90
2023-02-09T08:10:54.978Z,48.54
2023-02-09T08:12:46.717Z,48.37
2023-02-09T08:14:22.450Z,48.07
2023-02-09T08:15:55.750Z,48.60
2023-02-09T08:17:28.149Z,48.09
2023-02-09T08:19:06.595Z,48.93
2023-02-09T08:20:38.207Z,48.38
2023-02-09T08:22:09.894Z,48.61
2023-02-09T08:23:41.937Z,48.89
2023-02-09T08:25:14.306Z,48.30
2023-02-09T08:26:46.299Z,48.61
2023-02-09T08:28:21.729Z,48.45
2023-02-09T08:29:53.320Z,48.41
2023-02-09T08:31:24.903Z,48.21
2023-02-09T08:32:56.552Z,47.98
2023-02-09T08:34:28.181Z,48.26
2023-02-09T08:35:59.846Z,48.59
2023-02-09T08:37:31.547Z,48.39
2023-02-09T08:39:05.588Z,48.01
2023-02-09T08:40:40.326Z,48.30
2023-02-09T08:42:11.891Z,48.33
2023-02-09T08:43:47.336Z,48.42
2023-02-09T08:45:18.970Z,48.41
2023-02-09T08:46:51.283Z,48.40
2023-02-09T08:48:22.899Z,48.17
2023-02-09T08:49:54.476Z,47.85
2023-02-09T08:51:26.124Z,48.29
2023-02-09T08:52:58.266Z,48.21
2023-02-09T08:54:29.963Z,48.45
2023-02-09T08:56:01.644Z,48.48
2023-02-09T08:57:43.476Z,48.45
2023-02-09T08:59:16.996Z,48.42
2023-02-09T09:00:50.045Z,48.28
2023-02-09T09:02:21.712Z,47.94
2023-02-09T09:03:53.500Z,47.62
2023-02-09T09:05:25.006Z,47.43
2023-02-09T09:06:56.696Z,47.02
2023-02-09T09:08:28.307Z,47.29
2023-02-09T09:10:00.005Z,47.15
2023-02-09T09:11:31.731Z,47.28
2023-02-09T09:13:03.792Z,47.32
2023-02-09T09:14:35.753Z,46.91
2023-02-09T09:16:07.598Z,46.88
2023-02-09T09:17:39.515Z,47.27
2023-02-09T09:19:11.066Z,47.29
2023-02-09T09:20:42.747Z,47.00
2023-02-09T09:22:14.315Z,46.90
2023-02-09T09:23:46.090Z,47.15
2023-02-09T09:25:20.398Z,46.74
2023-02-09T09:26:51.936Z,46.49
2023-02-09T09:28:23.474Z,46.58
2023-02-09T09:29:55.573Z,47.23
2023-02-09T09:31:27.325Z,46.86
2023-02-09T09:32:59.418Z,46.43
2023-02-09T09:34:31.170Z,46.64
2023-02-09T09:36:03.188Z,46.56
2023-02-09T09:37:35.067Z,46.88
2023-02-09T09:39:07.098Z,46.17
2023-02-09T09:40:40.600Z,46.41
2023-02-09T09:42:26.082Z,46.46
2023-02-09T09:43:58.248Z,46.21
2023-02-09T09:45:30.400Z,45.97
2023-02-09T09:47:07.586Z,45.96
2023-02-09T09:48:42.985Z,46.08
2023-02-09T09:50:15.239Z,46.38
2023-02-09T09:51:48.276Z,46.01
2023-02-09T09:53:35.593Z,45.84
2023-02-09T09:55:08.112Z,46.29
2023-02-09T09:56:41.181Z,46.14
2023-02-09T09:58:16.047Z,45.83
2023-02-09T09:59:47.800Z,45.58
2023-02-09T10:01:20.260Z,45.79
2023-02-09T10:02:52.209Z,45.83
2023-02-09T10:04:23.957Z,45.39
2023-02-09T10:05:56.847Z,46.03
2023-02-09T10:07:31.823Z,46.01
2023-02-09T10:09:04.696Z,45.84
2023-02-09T10:10:55.368Z,45.38
2023-02-09T10:12:37.807Z,45.27
2023-02-09T10:14:10.148Z,45.41
2023-02-09T10:15:42.164Z,45.47
2023-02-09T10:17:13.744Z,45.18
2023-02-09T10:18:46.149Z,45.03
2023-02-09T10:20:18.118Z,44.97
2023-02-09T10:21:50.173Z,44.86
2023-02-09T10:23:25.989Z,45.29
2023-02-09T10:24:57.695Z,44.97
2023-02-09T10:26:31.358Z,45.02
2023-02-09T10:28:06.599Z,44.64
2023-02-09T10:29:38.390Z,44.96
2023-02-09T10:31:19.465Z,44.93
2023-02-09T10:32:51.267Z,44.87
2023-02-09T10:34:31.335Z,44.95
2023-02-09T10:36:06.244Z,44.61
2023-02-09T10:37:38.613Z,44.76
2023-02-09T10:39:10.330Z,44.71
2023-02-09T10:40:42.126Z,44.47
2023-02-09T10:42:20.438Z,44.68
2023-02-09T10:43:52.574Z,44.27
2023-02-09T10:45:46.359Z,44.27
2023-02-09T10:47:20.895Z,44.56
2023-02-09T10:48:52.414Z,44.33
2023-02-09T10:50:24.087Z,44.43
2023-02-09T10:52:15.173Z,44.39
2023-02-09T10:53:55.834Z,44.35
2023-02-09T10:55:29.048Z,44.55
2023-02-09T10:57:02.129Z,44.35
2023-02-09T10:58:34.696Z,44.30
2023-02-09T11:00:16.010Z,44.10
2023-02-09T11:01:57.669Z,44.22
2023-02-09T11:03:30.407Z,44.16
2023-02-09T11:05:02.186Z,44.20
2023-02-09T11:06:43.739Z,43.57
2023-02-09T11:08:21.932Z,43.46
2023-02-09T11:09:54.977Z,43.98
2023-02-09T11:11:36.234Z,43.78
2023-02-09T11:13:14.948Z,43.93
2023-02-09T11:14:47.044Z,43.78
2023-02-09T11:16:38.525Z,43.88
2023-02-09T11:18:11.916Z,43.36
2023-02-09T11:19:46.854Z,44.10
2023-02-09T11:21:29.274Z,43.32
2023-02-09T11:23:19.843Z,43.45
2023-02-09T11:25:19.201Z,43.32
2023-02-09T11:26:55.589Z,43.15
2023-02-09T11:28:46.561Z,42.71
2023-02-09T11:30:18.788Z,42.56
2023-02-09T11:32:02.806Z,42.87
2023-02-09T11:33:40.813Z,43.55
2023-02-09T11:35:14.411Z,43.63
2023-02-09T11:36:51.568Z,43.15
2023-02-09T11:38:29.597Z,43.19
2023-02-09T11:40:13.874Z,42.91
2023-02-09T11:42:24.353Z,42.85
2023-02-09T11:43:56.601Z,42.19
2023-02-09T11:45:30.750Z,42.00
2023-02-09T11:47:06.880Z,42.49
2023-02-09T11:48:43.002Z,41.79
2023-02-09T11:50:40.494Z,42.00
2023-02-09T11:52:13.830Z,42.16
2023-02-09T11:53:47.781Z,42.09
2023-02-09T11:55:25.494Z,41.62
2023-02-09T11:56:59.694Z,41.73
2023-02-09T11:58:31.220Z,41.70
2023-02-09T12:00:05.202Z,41.76
2023-02-09T12:01:55.500Z,42.22
2023-02-09T12:03:27.117Z,42.29
2023-02-09T12:05:01.809Z,42.34
2023-02-09T12:06:44.432Z,41.52
2023-02-09T12:08:45.313Z,41.67
2023-02-09T12:10:35.745Z,41.31
2023-02-09T12:12:22.377Z,41.68
2023-02-09T12:13:54.044Z,41.68
2023-02-09T12:15:37.678Z,41.00
2023-02-09T12:17:19.337Z,41.06
2023-02-09T12:18:51.088Z,41.35
2023-02-09T12:20:25.628Z,41.70
2023-02-09T12:21:57.133Z,41.20
2023-02-09T12:23:31.882Z,41.48
2023-02-09T12:25:12.945Z,41.71
2023-02-09T12:26:55.154Z,40.65
2023-02-09T12:28:30.150Z,40.56
2023-02-09T12:30:01.867Z,40.95
2023-02-09T12:31:53.388Z,40.24
2023-02-09T12:33:25.107Z,40.51
2023-02-09T12:35:00.054Z,40.66
2023-02-09T12:36:35.557Z,40.41
2023-02-09T12:38:13.242Z,40.46
2023-02-09T12:40:03.763Z,40.60
2023-02-09T12:41:38.491Z,40.72
2023-02-09T12:43:13.282Z,40.68
2023-02-09T12:44:57.114Z,40.44
2023-02-09T12:46:28.771Z,40.19
2023-02-09T12:48:09.487Z,40.47
2023-02-09T12:49:41.058Z,40.00
2023-02-09T12:51:33.950Z,39.48
2023-02-09T12:53:29.390Z,39.88
2023-02-09T12:55:03.309Z,40.29
2023-02-09T12:56:34.889Z,39.69
2023-02-09T12:58:27.342Z,39.82
2023-02-09T12:59:59.857Z,39.82
2023-02-09T13:01:50.123Z,39.41
2023-02-09T13:03:21.768Z,39.51
2023-02-09T13:05:04.366Z,39.82
2023-02-09T13:06:37.200Z,39.60
2023-02-09T13:08:08.750Z,39.61
2023-02-09T13:09:40.289Z,39.29
2023-02-09T13:11:23.405Z,39.32
2023-02-09T13:13:09.323Z,39.06
2023-02-09T13:14:42.646Z,39.43
2023-02-09T13:16:23.352Z,39.60
2023-02-09T13:18:04.931Z,39.55
2023-02-09T13:20:02.328Z,39.17
2023-02-09T13:21:47.807Z,39.00
2023-02-09T13:23:32.969Z,38.65
2023-02-09T13:25:15.567Z,38.93
2023-02-09T13:26:54.039Z,38.89
2023-02-09T13:28:28.390Z,39.03
2023-02-09T13:30:00.131Z,39.06
2023-02-09T13:31:41.150Z,38.81
2023-02-09T13:33:12.655Z,38.57
2023-02-09T13:34:55.918Z,38.30
2023-02-09T13:36:31.383Z,38.46
2023-02-09T13:38:14.162Z,38.18
2023-02-09T13:39:45.732Z,38.61
2023-02-09T13:41:24.407Z,38.34
2023-02-09T13:43:16.295Z,38.59
2023-02-09T13:44:50.216Z,38.30
2023-02-09T13:46:28.140Z,38.67
2023-02-09T13:48:00.811Z,38.67
2023-02-09T13:49:32.281Z,38.18
2023-02-09T13:55:58.080Z,39.03
2023-02-09T13:57:38.726Z,38.98
2023-02-09T13:59:13.589Z,38.81
2023-02-09T14:00:51.909Z,38.87
2023-02-09T14:02:25.138Z,38.75
2023-02-09T14:04:01.196Z,39.22
2023-02-09T14:05:39.853Z,39.41
2023-02-09T14:07:11.645Z,39.51
2023-02-09T14:08:43.152Z,39.29
2023-02-09T14:10:16.846Z,39.66
2023-02-09T14:11:55.913Z,39.50
2023-02-09T14:13:39.237Z,39.37
2023-02-09T14:15:29.721Z,39.70
2023-02-09T14:17:22.877Z,38.81
2023-02-09T14:18:56.641Z,39.66
2023-02-09T14:20:31.371Z,39.58
2023-02-09T14:22:03.444Z,39.03
2023-02-09T14:23:35.514Z,39.20
2023-02-09T14:25:13.314Z,38.67
2023-02-09T14:27:00.142Z,39.14
2023-02-09T14:28:40.738Z,38.94
2023-02-09T14:30:15.415Z,38.75
2023-02-09T14:31:49.908Z,38.78
2023-02-09T14:33:22.335Z,38.98
2023-02-09T14:34:53.850Z,38.93
2023-02-09T14:36:32.674Z,39.16
2023-02-09T14:38:04.648Z,39.01
2023-02-09T14:39:37.418Z,38.84
2023-02-09T14:41:18.780Z,38.94
2023-02-09T14:43:08.999Z,38.84
2023-02-09T14:44:46.690Z,38.83
2023-02-09T14:46:18.230Z,38.55
2023-02-09T14:47:49.797Z,38.52
2023-02-09T14:49:21.742Z,38.72
2023-02-09T14:50:53.859Z,38.57
2023-02-09T14:52:28.940Z,38.40
2023-02-09T14:54:00.613Z,38.60
2023-02-09T14:55:33.162Z,38.54
2023-02-09T14:57:04.920Z,38.58
2023-02-09T14:58:36.401Z,38.36
2023-02-09T15:00:14.916Z,38.32
2023-02-09T15:01:46.891Z,38.43
2023-02-09T15:03:18.586Z,38.37
2023-02-09T15:04:50.122Z,38.39
2023-02-09T15:06:21.789Z,38.46
2023-02-09T15:07:54.158Z,38.60
2023-02-09T15:09:33.297Z,38.26
2023-02-09T15:11:25.299Z,38.28
2023-02-09T15:12:57.219Z,38.57
2023-02-09T15:14:36.139Z,38.59
2023-02-09T15:16:14.129Z,38.43
2023-02-09T15:17:45.998Z,38.17
2023-02-09T15:19:19.771Z,38.36
2023-02-09T15:20:51.349Z,38.39
2023-02-09T15:22:23.138Z,38.50
2023-02-09T15:23:54.992Z,38.75
2023-02-09T15:25:32.445Z,38.39
2023-02-09T15:27:12.761Z,38.94
2023-02-09T15:28:44.660Z,38.51
2023-02-09T15:30:20.601Z,38.17
2023-02-09T15:31:57.653Z,38.39
2023-02-09T15:33:29.603Z,38.38
2023-02-09T15:35:01.999Z,38.55
2023-02-09T15:36:33.642Z,38.56
2023-02-09T15:38:05.392Z,38.40
2023-02-09T15:39:36.920Z,38.51
2023-02-09T15:41:27.936Z,38.23
2023-02-09T15:43:18.290Z,38.72
2023-02-09T15:45:12.288Z,38.60
2023-02-09T15:47:04.672Z,38.81
2023-02-09T15:48:38.969Z,38.84
2023-02-09T15:50:10.635Z,38.41
2023-02-09T15:51:42.506Z,38.56
2023-02-09T15:53:15.203Z,38.45
2023-02-09T15:54:46.896Z,38.40
2023-02-09T15:56:19.180Z,38.75
2023-02-09T15:57:51.075Z,38.67
2023-02-09T15:59:22.913Z,38.95
2023-02-09T16:00:54.823Z,38.90
2023-02-09T16:02:26.489Z,38.83
2023-02-09T16:04:11.963Z,38.91
2023-02-09T16:05:45.424Z,38.58
2023-02-09T16:07:21.734Z,38.96
2023-02-09T16:08:53.852Z,38.49
2023-02-09T16:10:26.296Z,38.84
2023-02-09T16:11:57.876Z,38.70
2023-02-09T16:13:29.470Z,38.75
2023-02-09T16:15:01.056Z,38.74
2023-02-09T16:16:33.209Z,38.65
2023-02-09T16:18:04.873Z,38.60
2023-02-09T16:19:36.521Z,38.50
2023-02-09T16:21:10.297Z,39.21
2023-02-09T16:22:43.191Z,39.09
2023-02-09T16:24:30.494Z,38.58
2023-02-09T16:26:05.342Z,38.99
2023-02-09T16:27:36.827Z,38.75
2023-02-09T16:29:11.579Z,38.97
2023-02-09T16:30:55.924Z,38.76
2023-02-09T16:32:28.802Z,39.19
2023-02-09T16:34:00.454Z,38.98
2023-02-09T16:35:32.057Z,38.91
2023-02-09T16:37:03.962Z,39.24
2023-02-09T16:38:36.137Z,38.95
2023-02-09T16:40:16.893Z,39.24
2023-02-09T16:41:49.965Z,39.21
2023-02-09T16:43:21.853Z,38.98
2023-02-09T16:44:53.814Z,39.21
2023-02-09T16:46:25.466Z,39.08
2023-02-09T16:47:59.134Z,39.37
2023-02-09T16:49:30.983Z,39.13
2023-02-09T16:51:02.776Z,39.13
2023-02-09T16:52:34.516Z,39.21
2023-02-09T16:54:06.111Z,39.42
2023-02-09T16:55:38.096Z,39.33
2023-02-09T16:57:13.766Z,39.07
2023-02-09T16:58:45.317Z,39.38
2023-02-09T17:00:17.711Z,39.31
2023-02-09T17:01:49.350Z,39.25
2023-02-09T17:03:22.202Z,39.24
2023-02-09T17:04:53.927Z,39.28
2023-02-09T17:06:26.472Z,39.17
2023-02-09T17:08:12.324Z,38.97
2023-02-09T17:09:44.338Z,39.22
2023-02-09T17:11:17.107Z,39.02
2023-02-09T17:12:48.778Z,39.33
2023-02-09T17:14:20.272Z,39.26
2023-02-09T17:15:52.683Z,39.27
2023-02-09T17:17:24.396Z,39.42
2023-02-09T17:18:56.829Z,39.46
2023-02-09T17:20:28.722Z,39.17
2023-02-09T17:22:00.485Z,39.39
2023-02-09T17:23:32.090Z,39.54
2023-02-09T17:25:03.900Z,39.49
2023-02-09T17:26:36.341Z,39.43
2023-02-09T17:28:07.920Z,39.40
2023-02-09T17:29:39.516Z,39.52
2023-02-09T17:31:38.260Z,39.43
2023-02-09T17:33:23.914Z,39.52
2023-02-09T17:34:55.566Z,39.47
2023-02-09T17:36:28.916Z,39.65
2023-02-09T17:38:01.033Z,39.23
2023-02-09T17:39:33.370Z,39.73
2023-02-09T17:41:05.865Z,39.82
2023-02-09T17:42:37.485Z,39.63
2023-02-09T17:44:22.211Z,39.59
2023-02-09T17:45:57.836Z,39.74
2023-02-09T17:47:29.504Z,39.53
2023-02-09T17:49:01.042Z,40.07
2023-02-09T17:50:32.777Z,39.85
2023-02-09T17:52:04.461Z,39.86
2023-02-09T17:53:36.138Z,40.23
2023-02-09T17:55:08.194Z,39.92
2023-02-09T17:56:39.712Z,39.94
2023-02-09T17:58:11.772Z,40.15
2023-02-09T17:59:43.628Z,40.24
2023-02-09T18:01:25.348Z,40.15
2023-02-09T18:02:58.038Z,39.86
2023-02-09T18:04:31.747Z,39.95
2023-02-09T18:06:03.360Z,40.08
2023-02-09T18:07:34.873Z,40.01
2023-02-09T18:09:07.371Z,40.07
2023-02-09T18:10:38.970Z,40.17
2023-02-09T18:12:13.580Z,39.86
2023-02-09T18:13:45.168Z,39.88
2023-02-09T18:15:23.329Z,39.70
2023-02-09T18:16:55.333Z,40.26
2023-02-09T18:18:26.959Z,39.95
2023-02-09T18:19:58.534Z,40.04
2023-02-09T18:21:30.618Z,40.04
2023-02-09T18:23:03.016Z,39.79
2023-02-09T18:24:34.564Z,39.85
2023-02-09T18:26:06.201Z,39.88
2023-02-09T18:27:37.754Z,40.04
2023-02-09T18:29:09.456Z,40.09
2023-02-09T18:30:41.482Z,39.77
2023-02-09T18:32:15.109Z,39.99
2023-02-09T18:33:46.843Z,39.94
2023-02-09T18:35:48.081Z,39.80
2023-02-09T18:37:20.388Z,39.81
2023-02-09T18:38:53.526Z,39.91
2023-02-09T18:40:25.244Z,39.96
2023-02-09T18:41:57.334Z,39.73
2023-02-09T18:43:28.982Z,39.59
2023-02-09T18:45:00.578Z,39.54
2023-02-09T18:46:32.242Z,39.93
2023-02-09T18:48:04.184Z,39.62
2023-02-09T18:49:35.895Z,39.93
2023-02-09T18:51:08.094Z,39.50
2023-02-09T18:52:55.948Z,39.93
2023-02-09T18:54:29.187Z,40.35
2023-02-09T18:56:00.763Z,39.85
2023-02-09T18:57:32.277Z,39.70
2023-02-09T18:59:03.757Z,39.44
2023-02-09T19:00:35.846Z,39.76
2023-02-09T19:02:10.270Z,39.53
2023-02-09T19:03:41.902Z,39.68
2023-02-09T19:05:13.751Z,39.76
2023-02-09T19:06:45.311Z,39.51
2023-02-09T19:08:16.889Z,39.82
2023-02-09T19:09:48.767Z,39.60
2023-02-09T19:11:21.321Z,39.67
2023-02-09T19:12:54.142Z,39.71
2023-02-09T19:14:37.919Z,39.52
2023-02-09T19:16:12.620Z,39.95
2023-02-09T19:17:44.768Z,40.08
2023-02-09T19:19:16.800Z,39.70
2023-02-09T19:20:48.876Z,40.16
2023-02-09T19:22:20.788Z,39.47
2023-02-09T19:23:54.173Z,40.10
2023-02-09T19:25:26.999Z,39.48
2023-02-09T19:26:58.545Z,39.94
2023-02-09T19:28:30.144Z,40.18
2023-02-09T19:30:01.704Z,40.02
2023-02-09T19:31:33.871Z,40.27
2023-02-09T19:33:05.444Z,39.60
2023-02-09T19:34:39.062Z,39.48
2023-02-09T19:36:10.607Z,39.93
2023-02-09T19:37:42.273Z,39.46
2023-02-09T19:39:13.843Z,40.04
2023-02-09T19:40:45.519Z,40.04
2023-02-09T19:42:17.140Z,39.71
2023-02-09T19:43:48.791Z,39.79
2023-02-09T19:45:20.299Z,39.57
2023-02-09T19:46:51.980Z,39.75
2023-02-09T19:48:23.680Z,40.43
2023-02-09T19:49:55.525Z,40.00
2023-02-09T19:51:27.266Z,39.71
2023-02-09T19:52:59.299Z,40.41
2023-02-09T19:54:31.377Z,40.21
2023-02-09T19:56:02.932Z,39.93
2023-02-09T19:57:35.015Z,39.75
2023-02-09T19:59:06.570Z,40.23
2023-02-09T20:00:38.118Z,39.71
2023-02-09T20:02:11.011Z,40.37
2023-02-09T20:03:42.686Z,40.39
2023-02-09T20:05:15.007Z,39.83
2023-02-09T20:06:46.560Z,40.00
2023-02-09T20:08:18.432Z,40.06
2023-02-09T20:09:50.576Z,39.65
2023-02-09T20:11:22.203Z,40.06
2023-02-09T20:12:54.233Z,39.96
2023-02-09T20:14:26.794Z,40.06
2023-02-09T20:16:00.147Z,40.17
2023-02-09T20:17:31.719Z,40.37
2023-02-09T20:19:03.997Z,40.11
2023-02-09T20:20:35.583Z,39.61
2023-02-09T20:22:07.155Z,39.86
2023-02-09T20:23:38.655Z,40.05
2023-02-09T20:25:10.753Z,39.50
2023-02-09T20:26:42.796Z,39.32
2023-02-09T20:28:14.287Z,39.75
2023-02-09T20:29:45.923Z,39.52
2023-02-09T20:31:24.773Z,39.59